sensor_id;sensor_type;location;lat;lon;timestamp;temperature;humidity
15083;DHT22;7640;53.116;6.878;2022-12-29T00:01:11;10.70;99.90
15083;DHT22;7640;53.116;6.878;2022-12-29T00:03:39;10.80;99.90
15083;DHT22;7640;53.116;6.878;2022-12-29T00:06:08;10.80;99.90
15083;DHT22;7640;53.116;6.878;2022-12-29T00:08:38;10.80;99.90
15083;DHT22;7640;53.116;6.878;2022-12-29T00:11:11;10.80;99.90
15083;DHT22;7640;53.116;6.878;2022-12-29T00:13:40;10.80;99.90
15083;DHT22;7640;53.116;6.878;2022-12-29T00:16:26;10.80;99.90
15083;DHT22;7640;53.116;6.878;2022-12-29T00:18:55;10.80;99.90
15083;DHT22;7640;53.116;6.878;2022-12-29T00:21:25;10.80;99.90
15083;DHT22;7640;53.116;6.878;2022-12-29T00:24:15;10.80;99.90
15083;DHT22;7640;53.116;6.878;2022-12-29T00:27:11;10.80;99.90
15083;DHT22;7640;53.116;6.878;2022-12-29T00:29:58;10.80;99.90
15083;DHT22;7640;53.116;6.878;2022-12-29T00:32:43;10.90;99.90
15083;DHT22;7640;53.116;6.878;2022-12-29T00:35:31;10.90;99.90
15083;DHT22;7640;53.116;6.878;2022-12-29T00:38:05;10.90;99.90
15083;DHT22;7640;53.116;6.878;2022-12-29T00:40:52;10.90;99.90
15083;DHT22;7640;53.116;6.878;2022-12-29T00:43:38;10.90;99.90
15083;DHT22;7640;53.116;6.878;2022-12-29T00:46:24;10.90;99.90
15083;DHT22;7640;53.116;6.878;2022-12-29T00:48:52;10.90;99.90
15083;DHT22;7640;53.116;6.878;2022-12-29T00:51:38;10.90;99.90
15083;DHT22;7640;53.116;6.878;2022-12-29T00:54:06;10.90;99.90
15083;DHT22;7640;53.116;6.878;2022-12-29T00:56:36;10.90;99.90
15083;DHT22;7640;53.116;6.878;2022-12-29T00:59:06;10.90;99.90
15083;DHT22;7640;53.116;6.878;2022-12-29T01:01:37;10.90;99.90
15083;DHT22;7640;53.116;6.878;2022-12-29T01:04:06;10.90;99.90
15083;DHT22;7640;53.116;6.878;2022-12-29T01:06:37;11.00;99.90
15083;DHT22;7640;53.116;6.878;2022-12-29T01:09:07;11.00;99.90
15083;DHT22;7640;53.116;6.878;2022-12-29T01:11:54;11.00;99.90
15083;DHT22;7640;53.116;6.878;2022-12-29T01:14:23;11.00;99.90
15083;DHT22;7640;53.116;6.878;2022-12-29T01:16:52;11.00;99.90
15083;DHT22;7640;53.116;6.878;2022-12-29T01:19:21;11.10;99.90
15083;DHT22;7640;53.116;6.878;2022-12-29T01:21:50;11.00;99.90
15083;DHT22;7640;53.116;6.878;2022-12-29T01:24:20;11.00;99.90
15083;DHT22;7640;53.116;6.878;2022-12-29T01:26:49;11.10;99.90
15083;DHT22;7640;53.116;6.878;2022-12-29T01:29:19;11.10;99.90
15083;DHT22;7640;53.116;6.878;2022-12-29T01:31:47;11.10;99.90
15083;DHT22;7640;53.116;6.878;2022-12-29T01:34:16;11.10;99.90
15083;DHT22;7640;53.116;6.878;2022-12-29T01:36:45;11.10;99.90
15083;DHT22;7640;53.116;6.878;2022-12-29T01:39:13;11.10;99.90
15083;DHT22;7640;53.116;6.878;2022-12-29T01:41:42;11.10;99.90
15083;DHT22;7640;53.116;6.878;2022-12-29T01:47:33;11.20;99.90
15083;DHT22;7640;53.116;6.878;2022-12-29T01:50:08;11.10;99.90
15083;DHT22;7640;53.116;6.878;2022-12-29T01:52:42;11.10;99.90
15083;DHT22;7640;53.116;6.878;2022-12-29T01:55:12;11.20;99.90
15083;DHT22;7640;53.116;6.878;2022-12-29T01:57:45;11.20;99.90
15083;DHT22;7640;53.116;6.878;2022-12-29T02:00:16;11.20;99.90
15083;DHT22;7640;53.116;6.878;2022-12-29T02:02:48;11.20;99.90
15083;DHT22;7640;53.116;6.878;2022-12-29T02:05:24;11.20;99.90
15083;DHT22;7640;53.116;6.878;2022-12-29T02:07:55;11.20;99.90
15083;DHT22;7640;53.116;6.878;2022-12-29T02:10:26;11.20;99.90
15083;DHT22;7640;53.116;6.878;2022-12-29T02:12:56;11.20;99.90
15083;DHT22;7640;53.116;6.878;2022-12-29T02:15:33;11.30;99.90
15083;DHT22;7640;53.116;6.878;2022-12-29T02:18:18;11.30;99.90
15083;DHT22;7640;53.116;6.878;2022-12-29T02:27:34;11.30;99.90
15083;DHT22;7640;53.116;6.878;2022-12-29T02:30:44;11.30;99.90
15083;DHT22;7640;53.116;6.878;2022-12-29T02:33:31;11.30;99.90
15083;DHT22;7640;53.116;6.878;2022-12-29T02:36:10;11.30;99.90
15083;DHT22;7640;53.116;6.878;2022-12-29T02:38:53;11.30;99.90
15083;DHT22;7640;53.116;6.878;2022-12-29T02:41:32;11.40;99.90
15083;DHT22;7640;53.116;6.878;2022-12-29T02:44:04;11.40;99.90
15083;DHT22;7640;53.116;6.878;2022-12-29T02:46:44;11.40;99.90
15083;DHT22;7640;53.116;6.878;2022-12-29T02:49:19;11.40;99.90
15083;DHT22;7640;53.116;6.878;2022-12-29T02:51:54;11.40;99.90
15083;DHT22;7640;53.116;6.878;2022-12-29T02:54:26;11.30;99.90
15083;DHT22;7640;53.116;6.878;2022-12-29T02:57:15;11.30;99.90
15083;DHT22;7640;53.116;6.878;2022-12-29T02:59:58;11.20;99.90
15083;DHT22;7640;53.116;6.878;2022-12-29T03:03:04;11.20;99.90
15083;DHT22;7640;53.116;6.878;2022-12-29T03:05:55;11.20;99.90
15083;DHT22;7640;53.116;6.878;2022-12-29T03:08:33;11.10;99.90
15083;DHT22;7640;53.116;6.878;2022-12-29T03:11:06;11.10;99.90
15083;DHT22;7640;53.116;6.878;2022-12-29T03:14:01;11.10;99.90
15083;DHT22;7640;53.116;6.878;2022-12-29T03:16:51;11.10;99.90
15083;DHT22;7640;53.116;6.878;2022-12-29T03:19:25;11.10;99.90
15083;DHT22;7640;53.116;6.878;2022-12-29T03:21:56;11.10;99.90
15083;DHT22;7640;53.116;6.878;2022-12-29T03:24:45;11.10;99.90
15083;DHT22;7640;53.116;6.878;2022-12-29T03:27:18;11.10;99.90
15083;DHT22;7640;53.116;6.878;2022-12-29T03:29:52;11.20;99.90
15083;DHT22;7640;53.116;6.878;2022-12-29T03:32:25;11.10;99.90
15083;DHT22;7640;53.116;6.878;2022-12-29T03:34:58;11.10;99.90
15083;DHT22;7640;53.116;6.878;2022-12-29T03:37:31;11.10;99.90
15083;DHT22;7640;53.116;6.878;2022-12-29T03:40:04;11.10;99.90
15083;DHT22;7640;53.116;6.878;2022-12-29T03:42:35;11.10;99.90
15083;DHT22;7640;53.116;6.878;2022-12-29T03:45:05;11.10;99.90
15083;DHT22;7640;53.116;6.878;2022-12-29T03:47:35;11.10;99.90
15083;DHT22;7640;53.116;6.878;2022-12-29T03:50:06;11.10;99.90
15083;DHT22;7640;53.116;6.878;2022-12-29T03:52:35;11.10;99.90
15083;DHT22;7640;53.116;6.878;2022-12-29T03:55:04;11.10;99.90
15083;DHT22;7640;53.116;6.878;2022-12-29T03:57:33;11.10;99.90
15083;DHT22;7640;53.116;6.878;2022-12-29T04:00:02;11.10;99.90
15083;DHT22;7640;53.116;6.878;2022-12-29T04:02:31;11.10;99.90
15083;DHT22;7640;53.116;6.878;2022-12-29T04:05:00;11.10;99.90
15083;DHT22;7640;53.116;6.878;2022-12-29T04:07:29;11.10;99.90
15083;DHT22;7640;53.116;6.878;2022-12-29T04:09:58;11.10;99.90
15083;DHT22;7640;53.116;6.878;2022-12-29T04:12:26;11.00;99.90
15083;DHT22;7640;53.116;6.878;2022-12-29T04:14:54;11.10;99.90
15083;DHT22;7640;53.116;6.878;2022-12-29T04:17:23;11.10;99.90
15083;DHT22;7640;53.116;6.878;2022-12-29T04:19:51;11.10;99.90
15083;DHT22;7640;53.116;6.878;2022-12-29T04:22:41;11.10;99.90
15083;DHT22;7640;53.116;6.878;2022-12-29T04:25:09;11.10;99.90
15083;DHT22;7640;53.116;6.878;2022-12-29T04:27:38;11.10;99.90
15083;DHT22;7640;53.116;6.878;2022-12-29T04:30:07;11.20;99.90
15083;DHT22;7640;53.116;6.878;2022-12-29T04:32:38;11.10;99.90
15083;DHT22;7640;53.116;6.878;2022-12-29T04:35:07;11.10;99.90
15083;DHT22;7640;53.116;6.878;2022-12-29T04:37:35;11.10;99.90
15083;DHT22;7640;53.116;6.878;2022-12-29T04:40:07;11.10;99.90
15083;DHT22;7640;53.116;6.878;2022-12-29T04:42:36;11.10;99.90
15083;DHT22;7640;53.116;6.878;2022-12-29T04:45:06;11.10;99.90
15083;DHT22;7640;53.116;6.878;2022-12-29T04:47:35;11.10;99.90
15083;DHT22;7640;53.116;6.878;2022-12-29T04:50:04;11.00;99.90
15083;DHT22;7640;53.116;6.878;2022-12-29T04:52:33;11.10;99.90
15083;DHT22;7640;53.116;6.878;2022-12-29T04:55:02;11.10;99.90
15083;DHT22;7640;53.116;6.878;2022-12-29T04:57:32;11.00;99.90
15083;DHT22;7640;53.116;6.878;2022-12-29T05:00:00;11.00;99.90
15083;DHT22;7640;53.116;6.878;2022-12-29T05:02:29;11.00;99.90
15083;DHT22;7640;53.116;6.878;2022-12-29T05:04:58;11.00;99.90
15083;DHT22;7640;53.116;6.878;2022-12-29T05:07:26;10.90;99.90
15083;DHT22;7640;53.116;6.878;2022-12-29T05:09:54;10.90;99.90
15083;DHT22;7640;53.116;6.878;2022-12-29T05:12:23;10.90;99.90
15083;DHT22;7640;53.116;6.878;2022-12-29T05:14:52;10.90;99.90
15083;DHT22;7640;53.116;6.878;2022-12-29T05:17:20;10.90;99.90
15083;DHT22;7640;53.116;6.878;2022-12-29T05:19:49;10.80;99.90
15083;DHT22;7640;53.116;6.878;2022-12-29T05:22:17;10.80;99.90
15083;DHT22;7640;53.116;6.878;2022-12-29T05:24:45;10.70;99.90
15083;DHT22;7640;53.116;6.878;2022-12-29T05:27:14;10.70;99.90
15083;DHT22;7640;53.116;6.878;2022-12-29T05:29:43;10.70;99.90
15083;DHT22;7640;53.116;6.878;2022-12-29T05:32:13;10.60;99.90
15083;DHT22;7640;53.116;6.878;2022-12-29T05:34:44;10.60;99.90
15083;DHT22;7640;53.116;6.878;2022-12-29T05:37:12;10.50;99.90
15083;DHT22;7640;53.116;6.878;2022-12-29T05:39:41;10.50;99.90
15083;DHT22;7640;53.116;6.878;2022-12-29T05:42:09;10.50;99.90
15083;DHT22;7640;53.116;6.878;2022-12-29T05:44:38;10.40;99.90
15083;DHT22;7640;53.116;6.878;2022-12-29T05:47:06;10.40;99.90
15083;DHT22;7640;53.116;6.878;2022-12-29T05:49:36;10.40;99.90
15083;DHT22;7640;53.116;6.878;2022-12-29T05:52:04;10.40;99.90
15083;DHT22;7640;53.116;6.878;2022-12-29T05:54:33;10.40;99.90
15083;DHT22;7640;53.116;6.878;2022-12-29T05:57:01;10.30;99.90
15083;DHT22;7640;53.116;6.878;2022-12-29T05:59:29;10.30;99.90
15083;DHT22;7640;53.116;6.878;2022-12-29T06:01:57;10.30;99.90
15083;DHT22;7640;53.116;6.878;2022-12-29T06:04:26;10.30;99.90
15083;DHT22;7640;53.116;6.878;2022-12-29T06:06:56;10.30;99.90
15083;DHT22;7640;53.116;6.878;2022-12-29T06:09:24;10.30;99.90
15083;DHT22;7640;53.116;6.878;2022-12-29T06:11:53;10.20;99.90
15083;DHT22;7640;53.116;6.878;2022-12-29T06:14:21;10.30;99.90
15083;DHT22;7640;53.116;6.878;2022-12-29T06:16:49;10.30;99.90
15083;DHT22;7640;53.116;6.878;2022-12-29T06:19:18;10.30;99.90
15083;DHT22;7640;53.116;6.878;2022-12-29T06:21:47;10.30;99.90
15083;DHT22;7640;53.116;6.878;2022-12-29T06:24:16;10.30;99.90
15083;DHT22;7640;53.116;6.878;2022-12-29T06:26:45;10.30;99.90
15083;DHT22;7640;53.116;6.878;2022-12-29T06:29:13;10.30;99.90
15083;DHT22;7640;53.116;6.878;2022-12-29T06:31:44;10.30;99.90
15083;DHT22;7640;53.116;6.878;2022-12-29T06:34:13;10.30;99.90
15083;DHT22;7640;53.116;6.878;2022-12-29T06:36:41;10.30;99.90
15083;DHT22;7640;53.116;6.878;2022-12-29T06:39:10;10.30;99.90
15083;DHT22;7640;53.116;6.878;2022-12-29T06:41:40;10.30;99.90
15083;DHT22;7640;53.116;6.878;2022-12-29T06:44:09;10.30;99.90
15083;DHT22;7640;53.116;6.878;2022-12-29T06:46:37;10.40;99.90
15083;DHT22;7640;53.116;6.878;2022-12-29T06:49:06;10.30;99.90
15083;DHT22;7640;53.116;6.878;2022-12-29T06:51:34;10.30;99.90
15083;DHT22;7640;53.116;6.878;2022-12-29T06:54:03;10.30;99.90
15083;DHT22;7640;53.116;6.878;2022-12-29T06:56:31;10.30;99.90
15083;DHT22;7640;53.116;6.878;2022-12-29T06:59:01;10.30;99.90
15083;DHT22;7640;53.116;6.878;2022-12-29T07:01:30;10.20;99.90
15083;DHT22;7640;53.116;6.878;2022-12-29T07:03:58;10.20;99.90
15083;DHT22;7640;53.116;6.878;2022-12-29T07:06:27;10.20;99.90
15083;DHT22;7640;53.116;6.878;2022-12-29T07:08:55;10.20;99.90
15083;DHT22;7640;53.116;6.878;2022-12-29T07:11:24;10.10;99.90
15083;DHT22;7640;53.116;6.878;2022-12-29T07:13:52;10.10;99.90
15083;DHT22;7640;53.116;6.878;2022-12-29T07:16:22;10.10;99.90
15083;DHT22;7640;53.116;6.878;2022-12-29T07:18:51;10.10;99.90
15083;DHT22;7640;53.116;6.878;2022-12-29T07:21:19;10.10;99.90
15083;DHT22;7640;53.116;6.878;2022-12-29T07:23:48;10.10;99.90
15083;DHT22;7640;53.116;6.878;2022-12-29T07:26:16;10.00;99.90
15083;DHT22;7640;53.116;6.878;2022-12-29T07:28:45;10.10;99.90
15083;DHT22;7640;53.116;6.878;2022-12-29T07:31:15;10.00;99.90
15083;DHT22;7640;53.116;6.878;2022-12-29T07:33:47;10.00;99.90
15083;DHT22;7640;53.116;6.878;2022-12-29T07:36:16;10.00;99.90
15083;DHT22;7640;53.116;6.878;2022-12-29T07:38:44;10.10;99.90
15083;DHT22;7640;53.116;6.878;2022-12-29T07:41:12;10.10;99.90
15083;DHT22;7640;53.116;6.878;2022-12-29T07:43:41;10.10;99.90
15083;DHT22;7640;53.116;6.878;2022-12-29T07:46:09;10.00;99.90
15083;DHT22;7640;53.116;6.878;2022-12-29T07:48:59;10.10;99.90
15083;DHT22;7640;53.116;6.878;2022-12-29T07:51:28;10.10;99.90
15083;DHT22;7640;53.116;6.878;2022-12-29T07:53:56;10.10;99.90
15083;DHT22;7640;53.116;6.878;2022-12-29T07:56:27;10.20;99.90
15083;DHT22;7640;53.116;6.878;2022-12-29T07:58:55;10.20;99.90
15083;DHT22;7640;53.116;6.878;2022-12-29T08:01:24;10.20;99.90
15083;DHT22;7640;53.116;6.878;2022-12-29T08:03:52;10.30;99.90
15083;DHT22;7640;53.116;6.878;2022-12-29T08:06:24;10.30;99.90
15083;DHT22;7640;53.116;6.878;2022-12-29T08:08:53;10.30;99.90
15083;DHT22;7640;53.116;6.878;2022-12-29T08:11:23;10.30;99.90
15083;DHT22;7640;53.116;6.878;2022-12-29T08:13:52;10.30;99.90
15083;DHT22;7640;53.116;6.878;2022-12-29T08:16:20;10.30;99.90
15083;DHT22;7640;53.116;6.878;2022-12-29T08:18:49;10.30;99.90
15083;DHT22;7640;53.116;6.878;2022-12-29T08:21:17;10.30;99.90
15083;DHT22;7640;53.116;6.878;2022-12-29T08:23:47;10.30;99.90
15083;DHT22;7640;53.116;6.878;2022-12-29T08:26:16;10.30;99.90
15083;DHT22;7640;53.116;6.878;2022-12-29T08:28:44;10.30;99.90
15083;DHT22;7640;53.116;6.878;2022-12-29T08:31:13;10.30;99.90
15083;DHT22;7640;53.116;6.878;2022-12-29T08:33:41;10.30;99.90
15083;DHT22;7640;53.116;6.878;2022-12-29T08:36:10;10.30;99.90
15083;DHT22;7640;53.116;6.878;2022-12-29T08:38:38;10.40;99.90
15083;DHT22;7640;53.116;6.878;2022-12-29T08:41:08;10.40;99.90
15083;DHT22;7640;53.116;6.878;2022-12-29T08:43:36;10.40;99.90
15083;DHT22;7640;53.116;6.878;2022-12-29T08:46:05;10.40;99.90
15083;DHT22;7640;53.116;6.878;2022-12-29T08:48:33;10.40;99.90
15083;DHT22;7640;53.116;6.878;2022-12-29T08:51:02;10.40;99.90
15083;DHT22;7640;53.116;6.878;2022-12-29T08:53:31;10.50;99.90
15083;DHT22;7640;53.116;6.878;2022-12-29T08:56:00;10.40;99.90
15083;DHT22;7640;53.116;6.878;2022-12-29T08:58:33;10.40;99.90
15083;DHT22;7640;53.116;6.878;2022-12-29T09:01:01;10.40;99.90
15083;DHT22;7640;53.116;6.878;2022-12-29T09:03:29;10.40;99.90
15083;DHT22;7640;53.116;6.878;2022-12-29T09:06:18;10.40;99.90
15083;DHT22;7640;53.116;6.878;2022-12-29T09:08:46;10.50;99.90
15083;DHT22;7640;53.116;6.878;2022-12-29T09:11:17;10.50;99.90
15083;DHT22;7640;53.116;6.878;2022-12-29T09:13:47;10.50;99.90
15083;DHT22;7640;53.116;6.878;2022-12-29T09:16:16;10.50;99.90
15083;DHT22;7640;53.116;6.878;2022-12-29T09:18:45;10.50;99.90
15083;DHT22;7640;53.116;6.878;2022-12-29T09:21:14;10.50;99.90
15083;DHT22;7640;53.116;6.878;2022-12-29T09:23:42;10.50;99.90
15083;DHT22;7640;53.116;6.878;2022-12-29T09:26:10;10.50;99.90
15083;DHT22;7640;53.116;6.878;2022-12-29T09:28:39;10.40;99.90
15083;DHT22;7640;53.116;6.878;2022-12-29T09:31:08;10.40;99.90
15083;DHT22;7640;53.116;6.878;2022-12-29T09:33:37;10.40;99.90
15083;DHT22;7640;53.116;6.878;2022-12-29T09:36:06;10.40;99.90
15083;DHT22;7640;53.116;6.878;2022-12-29T09:38:36;10.30;99.90
15083;DHT22;7640;53.116;6.878;2022-12-29T09:41:10;10.20;99.90
15083;DHT22;7640;53.116;6.878;2022-12-29T09:44:03;10.20;99.90
15083;DHT22;7640;53.116;6.878;2022-12-29T09:46:39;10.10;99.90
15083;DHT22;7640;53.116;6.878;2022-12-29T09:49:19;10.10;99.90
15083;DHT22;7640;53.116;6.878;2022-12-29T09:51:54;10.00;99.90
15083;DHT22;7640;53.116;6.878;2022-12-29T09:54:34;10.00;99.90
15083;DHT22;7640;53.116;6.878;2022-12-29T09:57:15;10.00;99.90
15083;DHT22;7640;53.116;6.878;2022-12-29T09:59:45;10.00;99.90
15083;DHT22;7640;53.116;6.878;2022-12-29T10:02:31;10.00;99.90
15083;DHT22;7640;53.116;6.878;2022-12-29T10:05:01;10.10;99.90
15083;DHT22;7640;53.116;6.878;2022-12-29T10:07:40;10.10;99.90
15083;DHT22;7640;53.116;6.878;2022-12-29T10:10:23;10.20;99.90
15083;DHT22;7640;53.116;6.878;2022-12-29T10:13:18;10.20;99.90
15083;DHT22;7640;53.116;6.878;2022-12-29T10:15:59;10.20;99.90
15083;DHT22;7640;53.116;6.878;2022-12-29T10:22:08;10.10;99.90
15083;DHT22;7640;53.116;6.878;2022-12-29T10:24:47;10.10;99.90
15083;DHT22;7640;53.116;6.878;2022-12-29T10:27:18;10.00;99.90
15083;DHT22;7640;53.116;6.878;2022-12-29T10:29:49;10.00;99.90
15083;DHT22;7640;53.116;6.878;2022-12-29T10:32:30;10.00;99.90
15083;DHT22;7640;53.116;6.878;2022-12-29T10:35:06;10.00;99.90
15083;DHT22;7640;53.116;6.878;2022-12-29T10:37:45;10.00;99.90
15083;DHT22;7640;53.116;6.878;2022-12-29T10:40:22;10.00;99.90
15083;DHT22;7640;53.116;6.878;2022-12-29T10:42:54;10.00;99.90
15083;DHT22;7640;53.116;6.878;2022-12-29T10:45:28;10.10;99.90
15083;DHT22;7640;53.116;6.878;2022-12-29T10:48:00;9.90;99.90
15083;DHT22;7640;53.116;6.878;2022-12-29T10:50:31;9.90;99.90
15083;DHT22;7640;53.116;6.878;2022-12-29T10:53:02;9.80;99.90
15083;DHT22;7640;53.116;6.878;2022-12-29T10:55:35;9.70;99.90
15083;DHT22;7640;53.116;6.878;2022-12-29T10:58:06;9.80;99.90
15083;DHT22;7640;53.116;6.878;2022-12-29T11:00:36;9.80;99.90
15083;DHT22;7640;53.116;6.878;2022-12-29T11:06:25;9.80;99.90
15083;DHT22;7640;53.116;6.878;2022-12-29T11:08:57;9.80;99.90
15083;DHT22;7640;53.116;6.878;2022-12-29T11:11:28;9.80;99.90
15083;DHT22;7640;53.116;6.878;2022-12-29T11:14:13;9.80;99.90
15083;DHT22;7640;53.116;6.878;2022-12-29T11:16:42;9.80;99.90
15083;DHT22;7640;53.116;6.878;2022-12-29T11:19:22;9.70;99.90
15083;DHT22;7640;53.116;6.878;2022-12-29T11:21:52;9.70;99.90
15083;DHT22;7640;53.116;6.878;2022-12-29T11:24:23;9.70;99.90
15083;DHT22;7640;53.116;6.878;2022-12-29T11:26:54;9.80;99.90
15083;DHT22;7640;53.116;6.878;2022-12-29T11:29:27;9.80;99.90
15083;DHT22;7640;53.116;6.878;2022-12-29T11:31:57;9.80;99.90
15083;DHT22;7640;53.116;6.878;2022-12-29T11:34:31;9.70;99.90
15083;DHT22;7640;53.116;6.878;2022-12-29T11:37:04;9.70;99.90
15083;DHT22;7640;53.116;6.878;2022-12-29T11:39:37;9.70;99.90
15083;DHT22;7640;53.116;6.878;2022-12-29T11:42:14;9.70;99.90
15083;DHT22;7640;53.116;6.878;2022-12-29T11:44:46;9.70;99.90
15083;DHT22;7640;53.116;6.878;2022-12-29T11:47:25;9.70;99.90
15083;DHT22;7640;53.116;6.878;2022-12-29T11:49:56;9.70;99.90
15083;DHT22;7640;53.116;6.878;2022-12-29T11:52:31;9.70;99.90
15083;DHT22;7640;53.116;6.878;2022-12-29T11:55:05;9.70;99.90
15083;DHT22;7640;53.116;6.878;2022-12-29T11:57:45;9.70;99.90
15083;DHT22;7640;53.116;6.878;2022-12-29T12:00:16;9.70;99.90
15083;DHT22;7640;53.116;6.878;2022-12-29T12:02:53;9.70;99.90
15083;DHT22;7640;53.116;6.878;2022-12-29T12:05:33;9.70;99.90
15083;DHT22;7640;53.116;6.878;2022-12-29T12:08:13;9.70;99.90
15083;DHT22;7640;53.116;6.878;2022-12-29T12:10:52;9.90;99.90
15083;DHT22;7640;53.116;6.878;2022-12-29T12:13:29;9.90;99.90
15083;DHT22;7640;53.116;6.878;2022-12-29T12:16:04;10.00;99.90
15083;DHT22;7640;53.116;6.878;2022-12-29T12:18:40;10.10;99.90
15083;DHT22;7640;53.116;6.878;2022-12-29T12:21:18;10.10;99.90
15083;DHT22;7640;53.116;6.878;2022-12-29T12:26:56;10.20;99.90
15083;DHT22;7640;53.116;6.878;2022-12-29T12:29:34;10.20;99.90
15083;DHT22;7640;53.116;6.878;2022-12-29T12:32:13;10.20;99.90
15083;DHT22;7640;53.116;6.878;2022-12-29T12:34:44;10.20;99.90
15083;DHT22;7640;53.116;6.878;2022-12-29T12:37:33;10.10;99.90
15083;DHT22;7640;53.116;6.878;2022-12-29T12:40:36;10.30;99.90
15083;DHT22;7640;53.116;6.878;2022-12-29T12:43:28;10.40;99.90
15083;DHT22;7640;53.116;6.878;2022-12-29T12:46:18;10.50;99.90
15083;DHT22;7640;53.116;6.878;2022-12-29T12:49:07;10.50;99.90
15083;DHT22;7640;53.116;6.878;2022-12-29T12:51:53;10.70;99.90
15083;DHT22;7640;53.116;6.878;2022-12-29T12:54:48;10.80;99.90
15083;DHT22;7640;53.116;6.878;2022-12-29T12:57:40;10.90;99.90
15083;DHT22;7640;53.116;6.878;2022-12-29T13:00:17;11.00;99.90
15083;DHT22;7640;53.116;6.878;2022-12-29T13:02:59;11.00;99.90
15083;DHT22;7640;53.116;6.878;2022-12-29T13:05:50;11.00;99.90
15083;DHT22;7640;53.116;6.878;2022-12-29T13:08:39;11.00;99.90
15083;DHT22;7640;53.116;6.878;2022-12-29T13:11:19;10.90;99.90
15083;DHT22;7640;53.116;6.878;2022-12-29T13:14:12;10.90;99.90
15083;DHT22;7640;53.116;6.878;2022-12-29T13:16:51;10.80;99.90
15083;DHT22;7640;53.116;6.878;2022-12-29T13:19:29;10.80;99.90
15083;DHT22;7640;53.116;6.878;2022-12-29T13:22:06;10.90;99.90
15083;DHT22;7640;53.116;6.878;2022-12-29T13:24:50;10.90;99.90
15083;DHT22;7640;53.116;6.878;2022-12-29T13:27:30;10.90;99.90
15083;DHT22;7640;53.116;6.878;2022-12-29T13:30:09;10.90;99.90
15083;DHT22;7640;53.116;6.878;2022-12-29T13:32:49;10.80;99.90
15083;DHT22;7640;53.116;6.878;2022-12-29T13:35:41;10.80;99.90
15083;DHT22;7640;53.116;6.878;2022-12-29T13:38:24;10.70;99.90
15083;DHT22;7640;53.116;6.878;2022-12-29T13:40:56;10.70;99.90
15083;DHT22;7640;53.116;6.878;2022-12-29T13:43:29;10.60;99.90
15083;DHT22;7640;53.116;6.878;2022-12-29T13:46:04;10.60;99.90
15083;DHT22;7640;53.116;6.878;2022-12-29T13:48:39;10.60;99.90
15083;DHT22;7640;53.116;6.878;2022-12-29T13:51:09;10.50;99.90
15083;DHT22;7640;53.116;6.878;2022-12-29T13:53:54;10.40;99.90
15083;DHT22;7640;53.116;6.878;2022-12-29T13:56:36;10.40;99.90
15083;DHT22;7640;53.116;6.878;2022-12-29T13:59:14;10.40;99.90
15083;DHT22;7640;53.116;6.878;2022-12-29T14:01:52;10.40;99.90
15083;DHT22;7640;53.116;6.878;2022-12-29T14:04:31;10.40;99.90
15083;DHT22;7640;53.116;6.878;2022-12-29T14:07:11;10.40;99.90
15083;DHT22;7640;53.116;6.878;2022-12-29T14:09:56;10.40;99.90
15083;DHT22;7640;53.116;6.878;2022-12-29T14:12:39;10.50;99.90
15083;DHT22;7640;53.116;6.878;2022-12-29T14:15:22;10.50;99.90
15083;DHT22;7640;53.116;6.878;2022-12-29T14:18:40;10.50;99.90
15083;DHT22;7640;53.116;6.878;2022-12-29T14:21:24;10.50;99.90
15083;DHT22;7640;53.116;6.878;2022-12-29T14:24:43;10.40;99.90
15083;DHT22;7640;53.116;6.878;2022-12-29T14:27:51;10.30;99.90
15083;DHT22;7640;53.116;6.878;2022-12-29T14:30:53;10.30;99.90
15083;DHT22;7640;53.116;6.878;2022-12-29T14:33:28;10.30;99.90
15083;DHT22;7640;53.116;6.878;2022-12-29T14:36:24;10.30;99.90
15083;DHT22;7640;53.116;6.878;2022-12-29T14:39:35;10.20;99.90
15083;DHT22;7640;53.116;6.878;2022-12-29T14:42:25;10.20;99.90
15083;DHT22;7640;53.116;6.878;2022-12-29T14:45:30;10.10;99.90
15083;DHT22;7640;53.116;6.878;2022-12-29T14:48:39;10.10;99.90
15083;DHT22;7640;53.116;6.878;2022-12-29T14:51:46;10.00;99.90
15083;DHT22;7640;53.116;6.878;2022-12-29T14:57:37;10.00;99.90
15083;DHT22;7640;53.116;6.878;2022-12-29T15:00:27;9.90;99.90
15083;DHT22;7640;53.116;6.878;2022-12-29T15:03:06;9.90;99.90
15083;DHT22;7640;53.116;6.878;2022-12-29T15:05:54;9.90;99.90
15083;DHT22;7640;53.116;6.878;2022-12-29T15:08:50;9.90;99.90
15083;DHT22;7640;53.116;6.878;2022-12-29T15:11:47;9.80;99.90
15083;DHT22;7640;53.116;6.878;2022-12-29T15:14:37;9.80;99.90
15083;DHT22;7640;53.116;6.878;2022-12-29T15:17:31;9.80;99.90
15083;DHT22;7640;53.116;6.878;2022-12-29T15:20:33;9.70;99.90
15083;DHT22;7640;53.116;6.878;2022-12-29T15:23:20;9.70;99.90
15083;DHT22;7640;53.116;6.878;2022-12-29T15:26:02;9.60;99.90
15083;DHT22;7640;53.116;6.878;2022-12-29T15:28:42;9.50;99.90
15083;DHT22;7640;53.116;6.878;2022-12-29T15:31:23;9.50;99.90
15083;DHT22;7640;53.116;6.878;2022-12-29T15:34:16;9.50;99.90
15083;DHT22;7640;53.116;6.878;2022-12-29T15:37:06;9.40;99.90
15083;DHT22;7640;53.116;6.878;2022-12-29T15:40:31;9.40;99.90
15083;DHT22;7640;53.116;6.878;2022-12-29T15:46:25;9.30;99.90
15083;DHT22;7640;53.116;6.878;2022-12-29T15:49:40;9.30;99.90
15083;DHT22;7640;53.116;6.878;2022-12-29T15:52:34;9.20;99.90
15083;DHT22;7640;53.116;6.878;2022-12-29T15:55:19;9.20;99.90
15083;DHT22;7640;53.116;6.878;2022-12-29T15:58:19;9.20;99.90
15083;DHT22;7640;53.116;6.878;2022-12-29T16:00:55;9.20;99.90
15083;DHT22;7640;53.116;6.878;2022-12-29T16:03:33;9.20;99.90
15083;DHT22;7640;53.116;6.878;2022-12-29T16:08:59;9.20;99.90
15083;DHT22;7640;53.116;6.878;2022-12-29T16:11:52;9.20;99.90
15083;DHT22;7640;53.116;6.878;2022-12-29T16:14:53;9.10;99.90
15083;DHT22;7640;53.116;6.878;2022-12-29T16:17:56;9.10;99.90
15083;DHT22;7640;53.116;6.878;2022-12-29T16:20:39;9.10;99.90
15083;DHT22;7640;53.116;6.878;2022-12-29T16:23:23;9.00;99.90
15083;DHT22;7640;53.116;6.878;2022-12-29T16:26:29;9.00;99.90
15083;DHT22;7640;53.116;6.878;2022-12-29T16:29:12;9.00;99.90
15083;DHT22;7640;53.116;6.878;2022-12-29T16:32:01;9.00;99.90
15083;DHT22;7640;53.116;6.878;2022-12-29T16:34:50;9.00;99.90
15083;DHT22;7640;53.116;6.878;2022-12-29T16:37:30;9.00;99.90
15083;DHT22;7640;53.116;6.878;2022-12-29T16:40:32;9.10;99.90
15083;DHT22;7640;53.116;6.878;2022-12-29T16:43:26;9.10;99.90
15083;DHT22;7640;53.116;6.878;2022-12-29T16:46:31;9.10;99.90
15083;DHT22;7640;53.116;6.878;2022-12-29T16:49:16;9.10;99.90
15083;DHT22;7640;53.116;6.878;2022-12-29T16:51:51;9.30;99.90
15083;DHT22;7640;53.116;6.878;2022-12-29T16:54:43;9.20;99.90
15083;DHT22;7640;53.116;6.878;2022-12-29T16:57:43;9.20;99.90
15083;DHT22;7640;53.116;6.878;2022-12-29T17:00:25;9.20;99.90
15083;DHT22;7640;53.116;6.878;2022-12-29T17:03:30;9.30;99.90
15083;DHT22;7640;53.116;6.878;2022-12-29T17:06:08;9.30;99.90
15083;DHT22;7640;53.116;6.878;2022-12-29T17:08:50;9.30;99.90
15083;DHT22;7640;53.116;6.878;2022-12-29T17:11:40;9.30;99.90
15083;DHT22;7640;53.116;6.878;2022-12-29T17:14:53;9.30;99.90
15083;DHT22;7640;53.116;6.878;2022-12-29T17:17:30;9.30;99.90
15083;DHT22;7640;53.116;6.878;2022-12-29T17:20:16;9.20;99.90